sensor_id;sensor_type;location;lat;lon;timestamp;P1;durP1;ratioP1;P2;durP2;ratioP2
64282;SDS011;50497;50.720;-2.084;2022-11-23T00:02:24;9.23;;;1.50;;
64282;SDS011;50497;50.720;-2.084;2022-11-23T00:04:50;6.38;;;1.20;;
64282;SDS011;50497;50.720;-2.084;2022-11-23T00:07:15;9.52;;;1.58;;
64282;SDS011;50497;50.720;-2.084;2022-11-23T00:09:43;7.03;;;1.25;;
64282;SDS011;50497;50.720;-2.084;2022-11-23T00:12:08;11.25;;;1.80;;
64282;SDS011;50497;50.720;-2.084;2022-11-23T00:14:33;9.63;;;1.65;;
64282;SDS011;50497;50.720;-2.084;2022-11-23T00:16:59;10.25;;;1.63;;
64282;SDS011;50497;50.720;-2.084;2022-11-23T00:19:25;8.32;;;1.40;;
64282;SDS011;50497;50.720;-2.084;2022-11-23T00:21:50;7.53;;;1.42;;
64282;SDS011;50497;50.720;-2.084;2022-11-23T00:24:15;9.43;;;1.70;;
64282;SDS011;50497;50.720;-2.084;2022-11-23T00:26:41;5.10;;;1.42;;
64282;SDS011;50497;50.720;-2.084;2022-11-23T00:29:06;7.88;;;1.38;;
64282;SDS011;50497;50.720;-2.084;2022-11-23T00:31:32;6.00;;;1.30;;
64282;SDS011;50497;50.720;-2.084;2022-11-23T00:33:57;5.68;;;1.45;;
64282;SDS011;50497;50.720;-2.084;2022-11-23T00:36:23;7.97;;;1.40;;
64282;SDS011;50497;50.720;-2.084;2022-11-23T00:38:50;12.05;;;1.70;;
64282;SDS011;50497;50.720;-2.084;2022-11-23T00:41:20;8.07;;;1.58;;
64282;SDS011;50497;50.720;-2.084;2022-11-23T00:43:47;11.20;;;1.80;;
64282;SDS011;50497;50.720;-2.084;2022-11-23T00:46:17;9.35;;;1.70;;
64282;SDS011;50497;50.720;-2.084;2022-11-23T00:48:45;11.05;;;1.90;;
64282;SDS011;50497;50.720;-2.084;2022-11-23T00:51:13;7.50;;;1.67;;
64282;SDS011;50497;50.720;-2.084;2022-11-23T00:53:41;12.43;;;1.52;;
64282;SDS011;50497;50.720;-2.084;2022-11-23T00:56:07;7.18;;;1.58;;
64282;SDS011;50497;50.720;-2.084;2022-11-23T00:58:33;7.78;;;1.40;;
64282;SDS011;50497;50.720;-2.084;2022-11-23T01:01:10;9.27;;;1.40;;
64282;SDS011;50497;50.720;-2.084;2022-11-23T01:03:37;11.40;;;1.50;;
64282;SDS011;50497;50.720;-2.084;2022-11-23T01:06:08;11.60;;;1.50;;
64282;SDS011;50497;50.720;-2.084;2022-11-23T01:08:37;6.20;;;1.30;;
64282;SDS011;50497;50.720;-2.084;2022-11-23T01:11:05;13.77;;;1.50;;
64282;SDS011;50497;50.720;-2.084;2022-11-23T01:13:32;7.68;;;1.40;;
64282;SDS011;50497;50.720;-2.084;2022-11-23T01:15:58;8.20;;;1.40;;
64282;SDS011;50497;50.720;-2.084;2022-11-23T01:18:25;6.72;;;1.40;;
64282;SDS011;50497;50.720;-2.084;2022-11-23T01:25:42;8.27;;;1.53;;
64282;SDS011;50497;50.720;-2.084;2022-11-23T01:28:07;11.98;;;2.53;;
64282;SDS011;50497;50.720;-2.084;2022-11-23T01:30:33;8.25;;;1.60;;
64282;SDS011;50497;50.720;-2.084;2022-11-23T01:33:00;9.23;;;1.60;;
64282;SDS011;50497;50.720;-2.084;2022-11-23T01:35:26;8.95;;;1.55;;
64282;SDS011;50497;50.720;-2.084;2022-11-23T01:37:52;8.63;;;1.30;;
64282;SDS011;50497;50.720;-2.084;2022-11-23T01:40:18;7.65;;;1.25;;
64282;SDS011;50497;50.720;-2.084;2022-11-23T01:42:56;7.10;;;1.08;;
64282;SDS011;50497;50.720;-2.084;2022-11-23T01:45:35;10.25;;;1.50;;
64282;SDS011;50497;50.720;-2.084;2022-11-23T01:48:04;8.55;;;1.23;;
64282;SDS011;50497;50.720;-2.084;2022-11-23T01:50:35;10.38;;;1.40;;
64282;SDS011;50497;50.720;-2.084;2022-11-23T01:53:01;8.50;;;1.58;;
64282;SDS011;50497;50.720;-2.084;2022-11-23T01:55:27;6.30;;;1.40;;
64282;SDS011;50497;50.720;-2.084;2022-11-23T01:57:52;6.90;;;1.30;;
64282;SDS011;50497;50.720;-2.084;2022-11-23T02:00:19;5.80;;;1.30;;
64282;SDS011;50497;50.720;-2.084;2022-11-23T02:02:48;5.38;;;1.20;;
64282;SDS011;50497;50.720;-2.084;2022-11-23T02:05:18;8.65;;;1.40;;
64282;SDS011;50497;50.720;-2.084;2022-11-23T02:07:48;9.43;;;1.48;;
64282;SDS011;50497;50.720;-2.084;2022-11-23T02:10:14;9.57;;;1.33;;
64282;SDS011;50497;50.720;-2.084;2022-11-23T02:12:40;10.18;;;1.52;;
64282;SDS011;50497;50.720;-2.084;2022-11-23T02:15:05;10.75;;;1.55;;
64282;SDS011;50497;50.720;-2.084;2022-11-23T02:17:32;7.40;;;1.38;;
64282;SDS011;50497;50.720;-2.084;2022-11-23T02:22:47;7.00;;;1.13;;
64282;SDS011;50497;50.720;-2.084;2022-11-23T02:28:08;9.27;;;1.30;;
64282;SDS011;50497;50.720;-2.084;2022-11-23T02:30:36;7.10;;;1.58;;
64282;SDS011;50497;50.720;-2.084;2022-11-23T02:33:04;9.32;;;1.30;;
64282;SDS011;50497;50.720;-2.084;2022-11-23T02:35:30;7.72;;;1.40;;
64282;SDS011;50497;50.720;-2.084;2022-11-23T02:37:57;11.20;;;1.45;;
64282;SDS011;50497;50.720;-2.084;2022-11-23T02:40:27;12.55;;;1.60;;
64282;SDS011;50497;50.720;-2.084;2022-11-23T02:42:56;7.85;;;1.35;;
64282;SDS011;50497;50.720;-2.084;2022-11-23T02:47:51;13.07;;;1.65;;
64282;SDS011;50497;50.720;-2.084;2022-11-23T02:50:17;10.48;;;1.58;;
64282;SDS011;50497;50.720;-2.084;2022-11-23T02:52:42;9.93;;;1.58;;
64282;SDS011;50497;50.720;-2.084;2022-11-23T02:55:08;12.07;;;1.75;;
64282;SDS011;50497;50.720;-2.084;2022-11-23T02:57:33;16.77;;;1.60;;
64282;SDS011;50497;50.720;-2.084;2022-11-23T02:59:59;14.90;;;1.73;;
64282;SDS011;50497;50.720;-2.084;2022-11-23T03:02:25;14.82;;;2.00;;
64282;SDS011;50497;50.720;-2.084;2022-11-23T03:04:50;12.98;;;1.80;;
64282;SDS011;50497;50.720;-2.084;2022-11-23T03:07:15;10.77;;;1.55;;
64282;SDS011;50497;50.720;-2.084;2022-11-23T03:09:41;15.95;;;1.95;;
64282;SDS011;50497;50.720;-2.084;2022-11-23T03:12:06;11.60;;;1.70;;
64282;SDS011;50497;50.720;-2.084;2022-11-23T03:14:32;13.38;;;2.00;;
64282;SDS011;50497;50.720;-2.084;2022-11-23T03:16:58;12.15;;;1.75;;
64282;SDS011;50497;50.720;-2.084;2022-11-23T03:21:49;9.52;;;1.50;;
64282;SDS011;50497;50.720;-2.084;2022-11-23T03:24:15;8.75;;;1.48;;
64282;SDS011;50497;50.720;-2.084;2022-11-23T03:26:41;12.70;;;2.13;;
64282;SDS011;50497;50.720;-2.084;2022-11-23T03:29:07;8.10;;;1.30;;
64282;SDS011;50497;50.720;-2.084;2022-11-23T03:31:33;9.35;;;1.50;;
64282;SDS011;50497;50.720;-2.084;2022-11-23T03:33:58;8.98;;;1.50;;
64282;SDS011;50497;50.720;-2.084;2022-11-23T03:36:23;8.00;;;1.50;;
64282;SDS011;50497;50.720;-2.084;2022-11-23T03:38:49;12.13;;;1.30;;
64282;SDS011;50497;50.720;-2.084;2022-11-23T03:41:15;6.57;;;1.00;;
64282;SDS011;50497;50.720;-2.084;2022-11-23T03:43:40;6.72;;;1.33;;
64282;SDS011;50497;50.720;-2.084;2022-11-23T03:46:05;9.43;;;1.13;;
64282;SDS011;50497;50.720;-2.084;2022-11-23T03:48:31;6.60;;;1.10;;
64282;SDS011;50497;50.720;-2.084;2022-11-23T03:50:56;9.73;;;1.48;;
64282;SDS011;50497;50.720;-2.084;2022-11-23T03:53:22;8.95;;;1.40;;
64282;SDS011;50497;50.720;-2.084;2022-11-23T03:55:47;8.93;;;1.70;;
64282;SDS011;50497;50.720;-2.084;2022-11-23T03:58:13;11.05;;;1.63;;
64282;SDS011;50497;50.720;-2.084;2022-11-23T04:00:39;8.52;;;1.35;;
64282;SDS011;50497;50.720;-2.084;2022-11-23T04:03:04;6.93;;;1.40;;
64282;SDS011;50497;50.720;-2.084;2022-11-23T04:05:30;8.55;;;1.25;;
64282;SDS011;50497;50.720;-2.084;2022-11-23T04:07:55;6.63;;;1.25;;
64282;SDS011;50497;50.720;-2.084;2022-11-23T04:10:21;12.80;;;1.60;;
64282;SDS011;50497;50.720;-2.084;2022-11-23T04:12:50;5.15;;;1.33;;
64282;SDS011;50497;50.720;-2.084;2022-11-23T04:15:16;8.50;;;1.52;;
64282;SDS011;50497;50.720;-2.084;2022-11-23T04:17:42;6.28;;;1.40;;
64282;SDS011;50497;50.720;-2.084;2022-11-23T04:20:08;9.60;;;1.23;;
64282;SDS011;50497;50.720;-2.084;2022-11-23T04:22:34;8.88;;;1.45;;
64282;SDS011;50497;50.720;-2.084;2022-11-23T04:24:59;9.98;;;1.58;;
64282;SDS011;50497;50.720;-2.084;2022-11-23T04:27:24;12.13;;;1.65;;
64282;SDS011;50497;50.720;-2.084;2022-11-23T04:29:50;10.82;;;1.70;;
64282;SDS011;50497;50.720;-2.084;2022-11-23T04:32:15;9.13;;;1.60;;
64282;SDS011;50497;50.720;-2.084;2022-11-23T04:34:41;10.23;;;1.92;;
64282;SDS011;50497;50.720;-2.084;2022-11-23T04:37:06;15.13;;;2.05;;
64282;SDS011;50497;50.720;-2.084;2022-11-23T04:39:32;14.23;;;2.00;;
64282;SDS011;50497;50.720;-2.084;2022-11-23T04:41:57;9.07;;;1.60;;
64282;SDS011;50497;50.720;-2.084;2022-11-23T04:44:22;11.07;;;1.85;;
64282;SDS011;50497;50.720;-2.084;2022-11-23T04:46:48;10.95;;;1.65;;
64282;SDS011;50497;50.720;-2.084;2022-11-23T04:49:14;11.32;;;1.98;;
64282;SDS011;50497;50.720;-2.084;2022-11-23T04:51:40;11.35;;;1.80;;
64282;SDS011;50497;50.720;-2.084;2022-11-23T04:54:05;9.63;;;1.58;;
64282;SDS011;50497;50.720;-2.084;2022-11-23T04:56:30;9.93;;;1.75;;
64282;SDS011;50497;50.720;-2.084;2022-11-23T04:58:56;9.70;;;1.50;;
64282;SDS011;50497;50.720;-2.084;2022-11-23T05:01:21;12.02;;;1.70;;
64282;SDS011;50497;50.720;-2.084;2022-11-23T05:03:47;15.88;;;2.00;;
64282;SDS011;50497;50.720;-2.084;2022-11-23T05:06:12;10.75;;;2.10;;
64282;SDS011;50497;50.720;-2.084;2022-11-23T05:08:38;8.45;;;1.90;;
64282;SDS011;50497;50.720;-2.084;2022-11-23T05:11:04;9.23;;;1.67;;
64282;SDS011;50497;50.720;-2.084;2022-11-23T05:13:29;8.77;;;1.60;;
64282;SDS011;50497;50.720;-2.084;2022-11-23T05:15:55;6.95;;;1.42;;
64282;SDS011;50497;50.720;-2.084;2022-11-23T05:18:20;9.90;;;1.73;;
64282;SDS011;50497;50.720;-2.084;2022-11-23T05:20:46;11.93;;;1.52;;
64282;SDS011;50497;50.720;-2.084;2022-11-23T05:23:12;7.50;;;1.73;;
64282;SDS011;50497;50.720;-2.084;2022-11-23T05:25:37;10.18;;;1.42;;
64282;SDS011;50497;50.720;-2.084;2022-11-23T05:28:03;5.10;;;1.08;;
64282;SDS011;50497;50.720;-2.084;2022-11-23T05:30:29;5.85;;;1.40;;
64282;SDS011;50497;50.720;-2.084;2022-11-23T05:32:59;8.70;;;1.60;;
64282;SDS011;50497;50.720;-2.084;2022-11-23T05:35:26;11.85;;;1.42;;
64282;SDS011;50497;50.720;-2.084;2022-11-23T05:37:51;6.80;;;1.75;;
64282;SDS011;50497;50.720;-2.084;2022-11-23T05:40:17;5.28;;;1.10;;
64282;SDS011;50497;50.720;-2.084;2022-11-23T05:42:42;8.20;;;1.38;;
64282;SDS011;50497;50.720;-2.084;2022-11-23T05:45:07;6.90;;;1.55;;
64282;SDS011;50497;50.720;-2.084;2022-11-23T05:47:33;7.97;;;1.50;;
64282;SDS011;50497;50.720;-2.084;2022-11-23T05:49:59;10.15;;;1.45;;
64282;SDS011;50497;50.720;-2.084;2022-11-23T05:52:25;12.57;;;1.60;;
64282;SDS011;50497;50.720;-2.084;2022-11-23T05:54:50;11.90;;;1.63;;
64282;SDS011;50497;50.720;-2.084;2022-11-23T05:57:15;10.35;;;1.83;;
64282;SDS011;50497;50.720;-2.084;2022-11-23T05:59:42;15.65;;;2.22;;
64282;SDS011;50497;50.720;-2.084;2022-11-23T06:02:08;12.45;;;2.22;;
64282;SDS011;50497;50.720;-2.084;2022-11-23T06:04:33;8.20;;;2.40;;
64282;SDS011;50497;50.720;-2.084;2022-11-23T06:06:59;16.65;;;2.80;;
64282;SDS011;50497;50.720;-2.084;2022-11-23T06:09:25;15.32;;;2.45;;
64282;SDS011;50497;50.720;-2.084;2022-11-23T06:11:51;18.83;;;2.80;;
64282;SDS011;50497;50.720;-2.084;2022-11-23T06:14:17;18.52;;;2.95;;
64282;SDS011;50497;50.720;-2.084;2022-11-23T06:16:42;10.43;;;1.77;;
64282;SDS011;50497;50.720;-2.084;2022-11-23T06:19:08;19.48;;;2.50;;
64282;SDS011;50497;50.720;-2.084;2022-11-23T06:21:33;14.00;;;2.67;;
64282;SDS011;50497;50.720;-2.084;2022-11-23T06:23:58;12.75;;;2.30;;
64282;SDS011;50497;50.720;-2.084;2022-11-23T06:26:24;18.55;;;2.67;;
64282;SDS011;50497;50.720;-2.084;2022-11-23T06:28:50;12.73;;;2.30;;
64282;SDS011;50497;50.720;-2.084;2022-11-23T06:31:15;18.98;;;2.17;;
64282;SDS011;50497;50.720;-2.084;2022-11-23T06:33:41;15.50;;;2.42;;
64282;SDS011;50497;50.720;-2.084;2022-11-23T06:36:08;16.67;;;2.40;;
64282;SDS011;50497;50.720;-2.084;2022-11-23T06:38:34;19.23;;;4.30;;
64282;SDS011;50497;50.720;-2.084;2022-11-23T06:41:00;12.75;;;2.00;;
64282;SDS011;50497;50.720;-2.084;2022-11-23T06:45:52;12.15;;;1.90;;
64282;SDS011;50497;50.720;-2.084;2022-11-23T06:48:19;9.40;;;1.38;;
64282;SDS011;50497;50.720;-2.084;2022-11-23T06:50:45;11.82;;;1.73;;
64282;SDS011;50497;50.720;-2.084;2022-11-23T06:53:11;15.52;;;2.33;;
64282;SDS011;50497;50.720;-2.084;2022-11-23T06:55:36;21.20;;;3.00;;
64282;SDS011;50497;50.720;-2.084;2022-11-23T06:58:02;18.33;;;2.10;;
64282;SDS011;50497;50.720;-2.084;2022-11-23T07:00:28;13.30;;;2.10;;
64282;SDS011;50497;50.720;-2.084;2022-11-23T07:02:54;24.38;;;2.47;;
64282;SDS011;50497;50.720;-2.084;2022-11-23T07:05:20;18.80;;;2.38;;
64282;SDS011;50497;50.720;-2.084;2022-11-23T07:10:12;11.00;;;2.15;;
64282;SDS011;50497;50.720;-2.084;2022-11-23T07:12:38;17.40;;;2.38;;
64282;SDS011;50497;50.720;-2.084;2022-11-23T07:15:08;14.32;;;2.15;;
64282;SDS011;50497;50.720;-2.084;2022-11-23T07:17:38;16.08;;;2.13;;
64282;SDS011;50497;50.720;-2.084;2022-11-23T07:20:08;14.13;;;1.83;;
64282;SDS011;50497;50.720;-2.084;2022-11-23T07:22:35;10.75;;;2.20;;
64282;SDS011;50497;50.720;-2.084;2022-11-23T07:25:02;9.70;;;1.50;;
64282;SDS011;50497;50.720;-2.084;2022-11-23T07:27:28;12.18;;;1.90;;
64282;SDS011;50497;50.720;-2.084;2022-11-23T07:29:53;8.95;;;1.73;;
64282;SDS011;50497;50.720;-2.084;2022-11-23T07:32:18;10.75;;;2.40;;
64282;SDS011;50497;50.720;-2.084;2022-11-23T07:34:44;14.60;;;1.90;;
64282;SDS011;50497;50.720;-2.084;2022-11-23T07:37:09;12.65;;;1.77;;
64282;SDS011;50497;50.720;-2.084;2022-11-23T07:39:39;14.38;;;2.08;;
64282;SDS011;50497;50.720;-2.084;2022-11-23T07:42:04;8.35;;;1.90;;
64282;SDS011;50497;50.720;-2.084;2022-11-23T07:44:34;12.35;;;1.90;;
64282;SDS011;50497;50.720;-2.084;2022-11-23T07:46:59;10.15;;;1.75;;
64282;SDS011;50497;50.720;-2.084;2022-11-23T07:49:25;9.77;;;1.70;;
64282;SDS011;50497;50.720;-2.084;2022-11-23T07:51:50;8.57;;;1.35;;
64282;SDS011;50497;50.720;-2.084;2022-11-23T07:54:17;10.23;;;2.10;;
64282;SDS011;50497;50.720;-2.084;2022-11-23T07:56:43;11.23;;;1.48;;
64282;SDS011;50497;50.720;-2.084;2022-11-23T07:59:08;6.78;;;1.42;;
64282;SDS011;50497;50.720;-2.084;2022-11-23T08:01:34;8.65;;;1.45;;
64282;SDS011;50497;50.720;-2.084;2022-11-23T08:03:59;6.53;;;1.63;;
64282;SDS011;50497;50.720;-2.084;2022-11-23T08:06:25;12.07;;;2.08;;
64282;SDS011;50497;50.720;-2.084;2022-11-23T08:08:50;10.02;;;1.70;;
64282;SDS011;50497;50.720;-2.084;2022-11-23T08:11:16;11.38;;;2.20;;
64282;SDS011;50497;50.720;-2.084;2022-11-23T08:13:42;13.27;;;1.80;;
64282;SDS011;50497;50.720;-2.084;2022-11-23T08:16:08;10.75;;;1.42;;
64282;SDS011;50497;50.720;-2.084;2022-11-23T08:18:33;4.90;;;1.20;;
64282;SDS011;50497;50.720;-2.084;2022-11-23T08:20:59;6.10;;;1.33;;
64282;SDS011;50497;50.720;-2.084;2022-11-23T08:23:25;7.07;;;1.38;;
64282;SDS011;50497;50.720;-2.084;2022-11-23T08:25:50;6.45;;;1.50;;
64282;SDS011;50497;50.720;-2.084;2022-11-23T08:28:16;11.55;;;1.88;;
64282;SDS011;50497;50.720;-2.084;2022-11-23T08:30:42;7.93;;;1.20;;
64282;SDS011;50497;50.720;-2.084;2022-11-23T08:33:08;5.32;;;1.30;;
64282;SDS011;50497;50.720;-2.084;2022-11-23T08:35:38;8.00;;;1.23;;
64282;SDS011;50497;50.720;-2.084;2022-11-23T08:38:05;7.78;;;1.42;;
64282;SDS011;50497;50.720;-2.084;2022-11-23T08:40:32;9.10;;;1.85;;
64282;SDS011;50497;50.720;-2.084;2022-11-23T08:42:57;6.22;;;1.30;;
64282;SDS011;50497;50.720;-2.084;2022-11-23T08:45:23;3.17;;;0.90;;
64282;SDS011;50497;50.720;-2.084;2022-11-23T08:47:49;5.93;;;1.23;;
64282;SDS011;50497;50.720;-2.084;2022-11-23T08:50:15;10.75;;;1.30;;
64282;SDS011;50497;50.720;-2.084;2022-11-23T08:55:07;9.23;;;1.42;;
64282;SDS011;50497;50.720;-2.084;2022-11-23T08:57:32;4.28;;;1.20;;
64282;SDS011;50497;50.720;-2.084;2022-11-23T08:59:58;7.57;;;1.50;;
64282;SDS011;50497;50.720;-2.084;2022-11-23T09:02:23;8.35;;;1.48;;
64282;SDS011;50497;50.720;-2.084;2022-11-23T09:04:49;7.95;;;2.00;;
64282;SDS011;50497;50.720;-2.084;2022-11-23T09:07:14;7.88;;;1.20;;
64282;SDS011;50497;50.720;-2.084;2022-11-23T09:09:40;9.52;;;1.40;;
64282;SDS011;50497;50.720;-2.084;2022-11-23T09:12:06;5.72;;;1.52;;
64282;SDS011;50497;50.720;-2.084;2022-11-23T09:14:31;8.55;;;1.40;;
64282;SDS011;50497;50.720;-2.084;2022-11-23T09:16:58;7.57;;;1.83;;
64282;SDS011;50497;50.720;-2.084;2022-11-23T09:19:25;6.85;;;1.20;;
64282;SDS011;50497;50.720;-2.084;2022-11-23T09:21:51;6.82;;;1.17;;
64282;SDS011;50497;50.720;-2.084;2022-11-23T09:24:16;8.43;;;1.40;;
64282;SDS011;50497;50.720;-2.084;2022-11-23T09:26:42;9.23;;;1.20;;
64282;SDS011;50497;50.720;-2.084;2022-11-23T09:29:07;9.80;;;1.70;;
64282;SDS011;50497;50.720;-2.084;2022-11-23T09:31:34;8.88;;;1.58;;
64282;SDS011;50497;50.720;-2.084;2022-11-23T09:34:00;8.85;;;1.50;;
64282;SDS011;50497;50.720;-2.084;2022-11-23T09:36:25;11.15;;;1.48;;
64282;SDS011;50497;50.720;-2.084;2022-11-23T09:38:51;10.02;;;1.83;;
64282;SDS011;50497;50.720;-2.084;2022-11-23T09:41:22;12.13;;;1.90;;
64282;SDS011;50497;50.720;-2.084;2022-11-23T09:52:02;13.82;;;2.22;;
64282;SDS011;50497;50.720;-2.084;2022-11-23T09:54:39;10.32;;;1.52;;
64282;SDS011;50497;50.720;-2.084;2022-11-23T09:57:08;12.25;;;1.80;;
64282;SDS011;50497;50.720;-2.084;2022-11-23T09:59:41;14.70;;;2.28;;
64282;SDS011;50497;50.720;-2.084;2022-11-23T10:02:24;11.63;;;1.88;;
64282;SDS011;50497;50.720;-2.084;2022-11-23T10:04:52;13.15;;;2.20;;
64282;SDS011;50497;50.720;-2.084;2022-11-23T10:12:25;13.40;;;2.08;;
64282;SDS011;50497;50.720;-2.084;2022-11-23T10:15:11;14.18;;;2.03;;
64282;SDS011;50497;50.720;-2.084;2022-11-23T10:18:01;13.40;;;2.08;;
64282;SDS011;50497;50.720;-2.084;2022-11-23T10:20:50;11.90;;;2.00;;
64282;SDS011;50497;50.720;-2.084;2022-11-23T10:23:53;20.67;;;3.45;;
64282;SDS011;50497;50.720;-2.084;2022-11-23T10:26:31;12.20;;;2.42;;
64282;SDS011;50497;50.720;-2.084;2022-11-23T10:29:05;9.90;;;2.05;;
64282;SDS011;50497;50.720;-2.084;2022-11-23T10:31:36;12.40;;;3.15;;
64282;SDS011;50497;50.720;-2.084;2022-11-23T10:34:03;17.20;;;2.70;;
64282;SDS011;50497;50.720;-2.084;2022-11-23T10:36:37;13.98;;;2.20;;
64282;SDS011;50497;50.720;-2.084;2022-11-23T10:39:14;10.07;;;2.05;;
64282;SDS011;50497;50.720;-2.084;2022-11-23T10:41:44;14.65;;;2.17;;
64282;SDS011;50497;50.720;-2.084;2022-11-23T10:49:09;13.60;;;2.72;;
64282;SDS011;50497;50.720;-2.084;2022-11-23T10:51:37;14.40;;;2.25;;
64282;SDS011;50497;50.720;-2.084;2022-11-23T10:54:05;11.90;;;2.17;;
64282;SDS011;50497;50.720;-2.084;2022-11-23T10:56:45;13.70;;;2.60;;
64282;SDS011;50497;50.720;-2.084;2022-11-23T11:02:20;12.73;;;1.95;;
64282;SDS011;50497;50.720;-2.084;2022-11-23T11:04:47;7.78;;;1.63;;
64282;SDS011;50497;50.720;-2.084;2022-11-23T11:09:55;9.63;;;2.22;;
64282;SDS011;50497;50.720;-2.084;2022-11-23T11:12:23;11.98;;;2.25;;
64282;SDS011;50497;50.720;-2.084;2022-11-23T11:17:29;11.57;;;1.80;;
64282;SDS011;50497;50.720;-2.084;2022-11-23T11:19:59;10.40;;;2.13;;
64282;SDS011;50497;50.720;-2.084;2022-11-23T11:22:29;11.48;;;2.45;;
64282;SDS011;50497;50.720;-2.084;2022-11-23T11:25:00;9.93;;;1.90;;
64282;SDS011;50497;50.720;-2.084;2022-11-23T11:27:30;9.05;;;1.50;;
64282;SDS011;50497;50.720;-2.084;2022-11-23T11:30:02;11.68;;;2.10;;
64282;SDS011;50497;50.720;-2.084;2022-11-23T11:35:15;13.68;;;2.67;;
64282;SDS011;50497;50.720;-2.084;2022-11-23T11:37:51;9.88;;;2.20;;
64282;SDS011;50497;50.720;-2.084;2022-11-23T11:40:44;12.80;;;2.90;;
64282;SDS011;50497;50.720;-2.084;2022-11-23T11:46:14;13.25;;;2.67;;
64282;SDS011;50497;50.720;-2.084;2022-11-23T11:48:50;12.70;;;2.47;;
64282;SDS011;50497;50.720;-2.084;2022-11-23T11:51:47;10.90;;;2.30;;
64282;SDS011;50497;50.720;-2.084;2022-11-23T11:54:23;23.38;;;3.83;;
64282;SDS011;50497;50.720;-2.084;2022-11-23T11:56:54;12.15;;;2.30;;
64282;SDS011;50497;50.720;-2.084;2022-11-23T12:07:41;12.82;;;2.53;;
64282;SDS011;50497;50.720;-2.084;2022-11-23T12:10:17;17.42;;;2.70;;
64282;SDS011;50497;50.720;-2.084;2022-11-23T12:12:48;11.98;;;2.20;;
64282;SDS011;50497;50.720;-2.084;2022-11-23T12:15:18;10.95;;;2.13;;
64282;SDS011;50497;50.720;-2.084;2022-11-23T12:50:38;8.25;;;1.58;;
64282;SDS011;50497;50.720;-2.084;2022-11-23T12:59:09;10.93;;;1.98;;
64282;SDS011;50497;50.720;-2.084;2022-11-23T13:01:37;9.90;;;1.60;;
64282;SDS011;50497;50.720;-2.084;2022-11-23T13:09:09;14.20;;;4.20;;
64282;SDS011;50497;50.720;-2.084;2022-11-23T13:11:42;9.35;;;1.83;;
64282;SDS011;50497;50.720;-2.084;2022-11-23T13:14:42;15.27;;;2.22;;
64282;SDS011;50497;50.720;-2.084;2022-11-23T13:22:47;13.15;;;2.13;;
64282;SDS011;50497;50.720;-2.084;2022-11-23T13:25:21;13.00;;;2.55;;
64282;SDS011;50497;50.720;-2.084;2022-11-23T13:30:26;13.63;;;2.65;;
64282;SDS011;50497;50.720;-2.084;2022-11-23T13:38:23;10.18;;;2.28;;
64282;SDS011;50497;50.720;-2.084;2022-11-23T13:40:54;9.77;;;1.60;;
64282;SDS011;50497;50.720;-2.084;2022-11-23T13:43:22;11.57;;;1.95;;
64282;SDS011;50497;50.720;-2.084;2022-11-23T13:48:44;17.20;;;2.30;;
64282;SDS011;50497;50.720;-2.084;2022-11-23T13:51:11;9.65;;;1.90;;
64282;SDS011;50497;50.720;-2.084;2022-11-23T13:53:45;18.65;;;2.88;;
64282;SDS011;50497;50.720;-2.084;2022-11-23T13:56:22;13.35;;;1.98;;
64282;SDS011;50497;50.720;-2.084;2022-11-23T14:04:44;16.73;;;2.13;;
64282;SDS011;50497;50.720;-2.084;2022-11-23T14:07:25;15.80;;;2.10;;
64282;SDS011;50497;50.720;-2.084;2022-11-23T14:12:40;14.18;;;2.13;;
64282;SDS011;50497;50.720;-2.084;2022-11-23T14:15:23;15.45;;;2.33;;
64282;SDS011;50497;50.720;-2.084;2022-11-23T14:23:41;12.65;;;2.40;;
64282;SDS011;50497;50.720;-2.084;2022-11-23T14:43:25;11.00;;;1.67;;
64282;SDS011;50497;50.720;-2.084;2022-11-23T14:45:53;9.50;;;1.70;;
64282;SDS011;50497;50.720;-2.084;2022-11-23T14:48:29;9.13;;;2.13;;
64282;SDS011;50497;50.720;-2.084;2022-11-23T14:51:04;9.88;;;1.70;;
64282;SDS011;50497;50.720;-2.084;2022-11-23T14:53:41;11.55;;;1.52;;
64282;SDS011;50497;50.720;-2.084;2022-11-23T14:56:43;9.30;;;2.00;;
64282;SDS011;50497;50.720;-2.084;2022-11-23T14:59:03;9.18;;;1.65;;
64282;SDS011;50497;50.720;-2.084;2022-11-23T15:01:36;12.05;;;1.95;;
64282;SDS011;50497;50.720;-2.084;2022-11-23T15:04:08;9.68;;;1.80;;
64282;SDS011;50497;50.720;-2.084;2022-11-23T15:06:46;10.10;;;1.77;;
64282;SDS011;50497;50.720;-2.084;2022-11-23T15:12:28;11.80;;;2.10;;
64282;SDS011;50497;50.720;-2.084;2022-11-23T15:15:18;12.70;;;1.88;;
64282;SDS011;50497;50.720;-2.084;2022-11-23T15:17:55;9.73;;;2.08;;
64282;SDS011;50497;50.720;-2.084;2022-11-23T15:20:27;15.52;;;2.03;;
64282;SDS011;50497;50.720;-2.084;2022-11-23T15:22:58;13.40;;;2.28;;
64282;SDS011;50497;50.720;-2.084;2022-11-23T15:25:25;14.82;;;2.35;;
64282;SDS011;50497;50.720;-2.084;2022-11-23T15:27:52;17.20;;;2.63;;
64282;SDS011;50497;50.720;-2.084;2022-11-23T15:32:47;16.35;;;2.60;;
64282;SDS011;50497;50.720;-2.084;2022-11-23T15:35:19;22.77;;;2.75;;
64282;SDS011;50497;50.720;-2.084;2022-11-23T15:37:47;17.98;;;2.30;;
64282;SDS011;50497;50.720;-2.084;2022-11-23T15:40:15;20.88;;;2.95;;
64282;SDS011;50497;50.720;-2.084;2022-11-23T15:42:43;15.93;;;2.78;;
64282;SDS011;50497;50.720;-2.084;2022-11-23T15:45:58;17.05;;;2.88;;
64282;SDS011;50497;50.720;-2.084;2022-11-23T15:48:00;19.02;;;2.67;;
64282;SDS011;50497;50.720;-2.084;2022-11-23T15:50:29;17.55;;;3.17;;
64282;SDS011;50497;50.720;-2.084;2022-11-23T15:52:57;22.48;;;2.90;;
64282;SDS011;50497;50.720;-2.084;2022-11-23T15:55:24;19.92;;;2.60;;
64282;SDS011;50497;50.720;-2.084;2022-11-23T15:57:53;18.20;;;3.28;;
64282;SDS011;50497;50.720;-2.084;2022-11-23T16:00:22;19.63;;;3.25;;
64282;SDS011;50497;50.720;-2.084;2022-11-23T16:02:49;20.35;;;3.15;;
64282;SDS011;50497;50.720;-2.084;2022-11-23T16:05:19;15.38;;;3.15;;
64282;SDS011;50497;50.720;-2.084;2022-11-23T16:10:19;17.05;;;3.08;;
64282;SDS011;50497;50.720;-2.084;2022-11-23T16:12:54;15.77;;;3.33;;
64282;SDS011;50497;50.720;-2.084;2022-11-23T16:15:28;15.43;;;2.83;;
64282;SDS011;50497;50.720;-2.084;2022-11-23T16:20:45;20.70;;;3.17;;
64282;SDS011;50497;50.720;-2.084;2022-11-23T16:26:09;18.27;;;3.97;;
64282;SDS011;50497;50.720;-2.084;2022-11-23T16:28:37;22.17;;;3.25;;
64282;SDS011;50497;50.720;-2.084;2022-11-23T16:31:22;16.65;;;3.67;;
64282;SDS011;50497;50.720;-2.084;2022-11-23T16:34:00;24.88;;;4.15;;
64282;SDS011;50497;50.720;-2.084;2022-11-23T16:36:26;17.80;;;3.00;;
64282;SDS011;50497;50.720;-2.084;2022-11-23T16:38:52;14.77;;;2.92;;
64282;SDS011;50497;50.720;-2.084;2022-11-23T16:41:18;20.20;;;3.50;;
64282;SDS011;50497;50.720;-2.084;2022-11-23T16:43:44;23.05;;;3.50;;
64282;SDS011;50497;50.720;-2.084;2022-11-23T16:46:10;20.67;;;3.15;;
64282;SDS011;50497;50.720;-2.084;2022-11-23T16:48:37;18.83;;;3.22;;
64282;SDS011;50497;50.720;-2.084;2022-11-23T16:51:07;21.42;;;3.38;;
64282;SDS011;50497;50.720;-2.084;2022-11-23T16:53:40;22.25;;;3.88;;
64282;SDS011;50497;50.720;-2.084;2022-11-23T16:56:11;14.23;;;2.38;;
64282;SDS011;50497;50.720;-2.084;2022-11-23T16:58:42;16.00;;;2.70;;
64282;SDS011;50497;50.720;-2.084;2022-11-23T17:01:08;13.25;;;2.58;;
64282;SDS011;50497;50.720;-2.084;2022-11-23T17:03:41;13.82;;;2.60;;
64282;SDS011;50497;50.720;-2.084;2022-11-23T17:08:36;9.75;;;2.10;;
64282;SDS011;50497;50.720;-2.084;2022-11-23T17:11:02;10.05;;;1.67;;
64282;SDS011;50497;50.720;-2.084;2022-11-23T17:13:27;7.20;;;1.50;;
64282;SDS011;50497;50.720;-2.084;2022-11-23T17:18:19;8.48;;;1.90;;
64282;SDS011;50497;50.720;-2.084;2022-11-23T17:20:47;9.88;;;1.63;;
64282;SDS011;50497;50.720;-2.084;2022-11-23T17:23:12;8.13;;;1.45;;
64282;SDS011;50497;50.720;-2.084;2022-11-23T17:25:38;5.63;;;1.50;;
64282;SDS011;50497;50.720;-2.084;2022-11-23T17:28:05;7.82;;;1.40;;